createdAt,value
2023-01-07T00:07:53.447Z,8.30
2023-01-07T00:16:01.472Z,8.40
2023-01-07T00:24:18.304Z,8.60
2023-01-07T00:32:44.070Z,8.60
2023-01-07T00:40:52.371Z,8.30
2023-01-07T00:48:58.039Z,8.40
2023-01-07T00:57:11.125Z,8.20
2023-01-07T01:05:17.837Z,8.40
2023-01-07T01:13:26.082Z,7.80
2023-01-07T01:21:32.115Z,7.90
2023-01-07T01:29:40.247Z,8.20
2023-01-07T01:37:46.339Z,8.10
2023-01-07T01:45:54.579Z,8.10
2023-01-07T01:54:00.978Z,8.60
2023-01-07T02:02:09.902Z,8.70
2023-01-07T02:10:23.661Z,8.80
2023-01-07T02:18:45.411Z,8.90
2023-01-07T02:27:28.259Z,8.90
2023-01-07T02:35:57.152Z,8.80
2023-01-07T02:44:07.906Z,8.70
2023-01-07T02:52:30.800Z,8.40
2023-01-07T03:00:55.979Z,8.30
2023-01-07T03:09:13.588Z,8.40
2023-01-07T03:17:22.646Z,8.90
2023-01-07T03:25:41.445Z,8.50
2023-01-07T03:33:52.329Z,8.30
2023-01-07T03:42:12.835Z,8.30
2023-01-07T03:50:19.566Z,8.70
2023-01-07T03:58:31.112Z,8.20
2023-01-07T04:06:36.673Z,7.50
2023-01-07T04:14:45.120Z,7.60
2023-01-07T04:22:51.305Z,7.90
2023-01-07T04:31:01.946Z,8.50
2023-01-07T04:39:08.738Z,8.70
2023-01-07T04:47:16.957Z,8.60
2023-01-07T04:55:23.411Z,8.30
2023-01-07T05:03:37.526Z,8.80
2023-01-07T05:11:47.831Z,9.00
2023-01-07T05:19:56.145Z,8.70
2023-01-07T05:28:06.365Z,8.70
2023-01-07T05:36:18.564Z,9.00
2023-01-07T05:44:24.233Z,9.10
2023-01-07T05:52:32.817Z,9.30
2023-01-07T06:00:38.904Z,9.20
2023-01-07T06:08:47.313Z,9.30
2023-01-07T06:16:52.824Z,9.50
2023-01-07T06:25:01.616Z,9.00
2023-01-07T06:33:07.764Z,9.20
2023-01-07T06:41:23.242Z,8.90
2023-01-07T06:49:32.056Z,9.50
2023-01-07T06:57:42.292Z,9.20
2023-01-07T07:05:48.038Z,8.80
2023-01-07T07:13:57.563Z,8.70
2023-01-07T07:22:05.953Z,8.80
2023-01-07T07:30:15.830Z,9.40
2023-01-07T07:38:21.633Z,9.50
2023-01-07T07:46:29.886Z,9.90
2023-01-07T07:54:35.583Z,10.10
2023-01-07T08:02:43.512Z,9.60
2023-01-07T08:10:48.902Z,9.20
2023-01-07T08:18:57.114Z,9.40
2023-01-07T08:27:03.894Z,10.00
2023-01-07T08:35:13.189Z,10.40
2023-01-07T08:43:19.825Z,10.50
2023-01-07T08:51:28.243Z,10.60
2023-01-07T08:59:33.668Z,10.50
2023-01-07T09:07:42.009Z,10.70
2023-01-07T09:15:48.577Z,11.30
2023-01-07T09:24:04.631Z,11.60
2023-01-07T09:32:21.462Z,12.60
2023-01-07T09:40:40.626Z,14.10
2023-01-07T09:48:55.774Z,12.90
2023-01-07T09:57:11.693Z,12.40
2023-01-07T10:05:30.053Z,12.30
2023-01-07T10:14:02.892Z,12.20
2023-01-07T10:22:28.918Z,13.20
2023-01-07T10:30:47.016Z,13.30
2023-01-07T10:39:33.043Z,12.70
2023-01-07T10:48:02.062Z,13.20
2023-01-07T10:56:20.643Z,13.30
2023-01-07T11:05:22.844Z,13.40
2023-01-07T11:14:25.033Z,13.80
2023-01-07T11:23:13.803Z,13.40
2023-01-07T11:31:22.410Z,13.80
2023-01-07T11:39:57.753Z,13.00
2023-01-07T11:57:15.082Z,13.70
2023-01-07T12:05:24.597Z,13.60
2023-01-07T12:13:34.585Z,13.50
2023-01-07T12:21:52.755Z,14.00
2023-01-07T12:39:53.533Z,13.80
2023-01-07T12:57:18.085Z,13.60
2023-01-07T13:05:54.174Z,14.10
2023-01-07T13:14:47.581Z,14.10
2023-01-07T13:23:03.381Z,14.30
2023-01-07T13:31:42.673Z,14.30
2023-01-07T13:40:06.178Z,13.60
2023-01-07T13:48:24.348Z,13.80
2023-01-07T13:56:38.929Z,14.10
2023-01-07T14:04:54.327Z,13.90
2023-01-07T14:13:24.965Z,13.70
2023-01-07T14:22:07.928Z,13.70
2023-01-07T14:30:28.718Z,13.80
2023-01-07T14:39:22.259Z,14.00
2023-01-07T14:47:58.156Z,13.60
2023-01-07T14:56:32.755Z,13.60
2023-01-07T15:05:13.464Z,13.80
2023-01-07T15:14:17.001Z,13.50
2023-01-07T15:22:54.449Z,13.70
2023-01-07T15:31:26.709Z,13.80
2023-01-07T15:48:23.998Z,13.40
2023-01-07T15:56:32.871Z,13.20
2023-01-07T16:04:43.994Z,12.70
2023-01-07T16:12:53.641Z,13.00
2023-01-07T16:21:08.009Z,13.00
2023-01-07T16:29:20.008Z,13.20
2023-01-07T16:37:29.099Z,12.80
2023-01-07T16:45:36.129Z,12.90
2023-01-07T16:53:46.617Z,12.80
2023-01-07T17:01:54.347Z,12.50
2023-01-07T17:10:05.040Z,11.60
2023-01-07T17:18:34.441Z,11.90
2023-01-07T17:26:45.432Z,11.90
2023-01-07T17:34:50.847Z,12.10
2023-01-07T17:43:13.786Z,11.90
2023-01-07T17:51:19.619Z,11.50
2023-01-07T17:59:33.148Z,11.50
2023-01-07T18:07:38.588Z,11.60
2023-01-07T18:15:46.601Z,11.60
2023-01-07T18:23:52.276Z,11.60
2023-01-07T18:32:01.527Z,11.50
2023-01-07T18:40:08.536Z,11.50
2023-01-07T18:48:18.218Z,11.30
2023-01-07T18:56:23.723Z,11.20
2023-01-07T19:04:37.707Z,10.90
2023-01-07T19:12:43.175Z,11.00
2023-01-07T19:20:51.884Z,11.30
2023-01-07T19:29:01.847Z,11.20
2023-01-07T19:37:10.606Z,11.20
2023-01-07T19:45:16.168Z,11.30
2023-01-07T19:53:24.547Z,11.00
2023-01-07T20:01:30.343Z,10.90
2023-01-07T20:09:38.483Z,11.10
2023-01-07T20:17:43.833Z,11.20
2023-01-07T20:25:51.872Z,11.00
2023-01-07T20:33:58.428Z,10.60
2023-01-07T20:42:07.001Z,10.50
2023-01-07T20:50:15.401Z,11.00
2023-01-07T20:58:23.712Z,10.70
2023-01-07T21:06:29.411Z,10.80
2023-01-07T21:14:37.497Z,11.00
2023-01-07T21:22:43.355Z,10.40
2023-01-07T21:30:51.843Z,10.80
2023-01-07T21:39:01.357Z,10.80
2023-01-07T21:47:15.976Z,10.70
2023-01-07T21:55:24.564Z,10.90
2023-01-07T22:03:32.735Z,10.00
2023-01-07T22:11:41.577Z,10.30
2023-01-07T22:19:49.738Z,10.30
2023-01-07T22:27:59.419Z,10.30
2023-01-07T22:36:08.304Z,10.30
2023-01-07T22:44:19.684Z,10.30
2023-01-07T22:52:27.908Z,10.20
2023-01-07T23:00:44.334Z,10.30
2023-01-07T23:08:52.511Z,10.20
2023-01-07T23:16:59.191Z,10.30
2023-01-07T23:25:08.184Z,10.30
2023-01-07T23:33:14.045Z,10.30
2023-01-07T23:41:22.094Z,10.10
2023-01-07T23:49:27.390Z,10.10
2023-01-07T23:57:35.565Z,10.30
